Time;durP1;ratioP1;P1;durP2;ratioP2;P2;SDS_P1;SDS_P2;PMS_P1;PMS_P2;Temp;Humidity;BMP_temperature;BMP_pressure;BME280_temperature;BME280_humidity;BME280_pressure;Samples;Min_cycle;Max_cycle;Signal;HPM_P1;HPM_P2
2021/04/17 00:02:01;;;;;;;11.30;10.20;;;;;;;;;;4971054;28;20196;-65
2021/04/17 00:04:28;;;;;;;10.77;9.33;;;;;;;;;;4973212;28;20635;-65
2021/04/17 00:06:54;;;;;;;10.60;9.50;;;;;;;;;;4966925;28;20209;-64
2021/04/17 00:09:22;;;;;;;10.50;9.50;;;;;;;;;;4974974;28;20228;-64
2021/04/17 00:11:49;;;;;;;11.27;10.17;;;;;;;;;;4969399;28;20294;-64
2021/04/17 00:14:17;;;;;;;11.03;10.03;;;;;;;;;;4970347;28;20192;-64
2021/04/17 00:16:44;;;;;;;11.07;9.97;;;;;;;;;;4966385;28;20615;-63
2021/04/17 00:19:10;;;;;;;10.93;9.83;;;;;;;;;;4968020;28;20797;-65
2021/04/17 00:21:36;;;;;;;11.17;10.07;;;;;;;;;;4972995;28;20204;-65
2021/04/17 00:24:02;;;;;;;10.10;9.17;;;;;;;;;;4972699;28;20193;-64
2021/04/17 00:26:30;;;;;;;12.03;10.83;;;;;;;;;;4969516;28;20204;-64
2021/04/17 00:28:56;;;;;;;10.80;9.80;;;;;;;;;;4972053;28;20216;-64
2021/04/17 00:31:22;;;;;;;10.63;9.53;;;;;;;;;;4966754;28;20193;-65
2021/04/17 00:33:48;;;;;;;11.67;10.47;;;;;;;;;;4965949;28;20660;-65
2021/04/17 00:36:14;;;;;;;10.90;9.90;;;;;;;;;;4966190;28;20299;-65
2021/04/17 00:38:40;;;;;;;11.03;9.93;;;;;;;;;;4971461;28;20190;-64
2021/04/17 00:41:06;;;;;;;11.70;10.50;;;;;;;;;;4973701;28;20189;-64
2021/04/17 00:43:32;;;;;;;12.07;10.50;;;;;;;;;;4973109;28;20199;-64
2021/04/17 00:45:59;;;;;;;11.47;10.20;;;;;;;;;;4972739;28;20283;-64
2021/04/17 00:48:25;;;;;;;12.97;9.93;;;;;;;;;;4969826;28;20279;-64
2021/04/17 00:50:52;;;;;;;12.47;11.17;;;;;;;;;;4969734;28;20192;-63
2021/04/17 00:53:18;;;;;;;12.33;11.13;;;;;;;;;;4973781;28;20186;-63
2021/04/17 00:55:44;;;;;;;12.70;11.50;;;;;;;;;;4975933;28;20196;-64
2021/04/17 00:58:10;;;;;;;11.93;10.67;;;;;;;;;;4959954;28;20198;-64
2021/04/17 01:00:37;;;;;;;12.97;11.67;;;;;;;;;;4969475;28;20239;-64
2021/04/17 01:03:06;;;;;;;13.17;11.73;;;;;;;;;;4973534;28;20188;-65
2021/04/17 01:05:33;;;;;;;13.07;11.33;;;;;;;;;;4971664;28;20248;-64
2021/04/17 01:08:00;;;;;;;12.17;10.90;;;;;;;;;;4969487;28;20200;-64
2021/04/17 01:10:33;;;;;;;13.50;12.10;;;;;;;;;;4971634;28;20216;-64
2021/04/17 01:12:59;;;;;;;15.90;13.77;;;;;;;;;;4972840;28;20179;-64
2021/04/17 01:15:26;;;;;;;15.20;13.07;;;;;;;;;;4969991;28;20284;-64
2021/04/17 01:17:53;;;;;;;17.40;14.27;;;;;;;;;;4969467;28;20294;-64
2021/04/17 01:20:22;;;;;;;15.07;13.47;;;;;;;;;;4971613;28;20187;-63
2021/04/17 01:22:54;;;;;;;14.87;12.90;;;;;;;;;;4968354;28;20690;-64
2021/04/17 01:25:21;;;;;;;14.63;13.13;;;;;;;;;;4971095;28;20189;-64
2021/04/17 01:27:47;;;;;;;14.17;12.67;;;;;;;;;;4969831;28;20208;-65
2021/04/17 01:30:15;;;;;;;14.00;12.50;;;;;;;;;;4972931;28;20276;-65
2021/04/17 01:32:41;;;;;;;14.43;12.40;;;;;;;;;;4972544;28;20187;-64
2021/04/17 01:35:08;;;;;;;17.37;13.30;;;;;;;;;;4964577;28;20189;-66
2021/04/17 01:37:49;;;;;;;13.53;12.13;;;;;;;;;;4965817;28;20232;-65
2021/04/17 01:40:15;;;;;;;18.67;14.10;;;;;;;;;;4971142;28;20209;-64
2021/04/17 01:42:41;;;;;;;17.10;13.27;;;;;;;;;;4965513;28;20207;-64
2021/04/17 01:45:08;;;;;;;18.50;14.97;;;;;;;;;;4969942;28;20184;-64
2021/04/17 01:47:37;;;;;;;19.27;15.17;;;;;;;;;;4971523;28;20283;-64
2021/04/17 01:50:03;;;;;;;18.03;14.77;;;;;;;;;;4964781;28;20696;-65
2021/04/17 01:52:29;;;;;;;16.00;14.13;;;;;;;;;;4971333;28;20180;-64
2021/04/17 01:54:57;;;;;;;15.40;13.33;;;;;;;;;;4979575;28;20256;-63
2021/04/17 01:57:24;;;;;;;14.60;12.33;;;;;;;;;;4972282;28;20211;-66
2021/04/17 01:59:51;;;;;;;13.43;12.07;;;;;;;;;;4973606;28;20688;-64
2021/04/17 02:02:17;;;;;;;13.67;12.33;;;;;;;;;;4971179;28;20241;-65
2021/04/17 02:04:43;;;;;;;13.37;12.07;;;;;;;;;;4966040;28;20183;-64
2021/04/17 02:07:09;;;;;;;13.87;12.47;;;;;;;;;;4974061;28;20202;-66
2021/04/17 02:09:36;;;;;;;12.90;11.47;;;;;;;;;;4972985;28;20593;-64
2021/04/17 02:12:02;;;;;;;13.93;12.43;;;;;;;;;;4969846;28;20610;-63
2021/04/17 02:14:29;;;;;;;14.23;12.77;;;;;;;;;;4971902;28;20189;-64
2021/04/17 02:17:02;;;;;;;14.97;13.40;;;;;;;;;;4970588;28;20210;-64
2021/04/17 02:19:31;;;;;;;14.33;12.87;;;;;;;;;;4973208;28;20200;-66
2021/04/17 02:21:58;;;;;;;14.17;12.17;;;;;;;;;;4971784;28;20209;-64
2021/04/17 02:24:27;;;;;;;14.30;12.90;;;;;;;;;;4971859;28;20185;-64
2021/04/17 02:26:54;;;;;;;14.53;13.03;;;;;;;;;;4965828;28;20298;-64
2021/04/17 02:29:20;;;;;;;14.20;12.70;;;;;;;;;;4972063;28;20204;-65
2021/04/17 02:31:46;;;;;;;15.87;14.27;;;;;;;;;;4966988;28;20505;-64
2021/04/17 02:34:12;;;;;;;14.17;12.77;;;;;;;;;;4965826;28;20221;-63
2021/04/17 02:36:38;;;;;;;14.23;12.83;;;;;;;;;;4962947;28;20205;-65
2021/04/17 02:39:05;;;;;;;15.07;13.47;;;;;;;;;;4968760;28;20796;-64
2021/04/17 02:41:31;;;;;;;15.50;13.63;;;;;;;;;;4964332;28;20242;-64
2021/04/17 02:43:58;;;;;;;15.87;14.27;;;;;;;;;;4972430;28;20183;-64
2021/04/17 02:46:24;;;;;;;14.67;13.07;;;;;;;;;;4964781;28;20212;-64
2021/04/17 02:48:50;;;;;;;15.10;13.60;;;;;;;;;;4970128;28;20608;-64
2021/04/17 02:51:16;;;;;;;12.90;11.67;;;;;;;;;;4972621;28;20193;-64
2021/04/17 02:53:42;;;;;;;14.60;13.10;;;;;;;;;;4970959;28;20265;-64
2021/04/17 02:56:08;;;;;;;14.90;13.30;;;;;;;;;;4968333;28;20230;-64
2021/04/17 02:58:34;;;;;;;13.67;12.23;;;;;;;;;;4974764;28;20311;-65
2021/04/17 03:01:01;;;;;;;14.30;12.90;;;;;;;;;;4970109;28;20325;-65
2021/04/17 03:03:27;;;;;;;14.17;12.77;;;;;;;;;;4966990;28;20279;-65
2021/04/17 03:05:53;;;;;;;15.83;14.23;;;;;;;;;;4967545;28;20223;-65
2021/04/17 03:08:19;;;;;;;14.87;13.20;;;;;;;;;;4967004;28;20277;-65
2021/04/17 03:10:45;;;;;;;14.10;12.60;;;;;;;;;;4966169;28;20438;-65
2021/04/17 03:13:11;;;;;;;14.77;13.27;;;;;;;;;;4969825;28;20197;-66
2021/04/17 03:15:37;;;;;;;15.33;13.73;;;;;;;;;;4964794;28;20243;-65
2021/04/17 03:18:04;;;;;;;14.90;13.40;;;;;;;;;;4961606;28;20230;-65
2021/04/17 03:20:30;;;;;;;16.13;13.90;;;;;;;;;;4973364;28;20222;-64
2021/04/17 03:22:56;;;;;;;16.10;14.20;;;;;;;;;;4963324;28;20195;-65
2021/04/17 03:25:22;;;;;;;16.90;15.10;;;;;;;;;;4972162;28;20193;-66
2021/04/17 03:27:48;;;;;;;19.47;15.07;;;;;;;;;;4971088;28;20287;-65
2021/04/17 03:30:18;;;;;;;16.27;14.30;;;;;;;;;;4973543;28;20213;-65
2021/04/17 03:32:44;;;;;;;15.53;13.93;;;;;;;;;;4969421;28;20187;-64
2021/04/17 03:35:11;;;;;;;15.77;14.07;;;;;;;;;;4964442;28;20209;-64
2021/04/17 03:37:38;;;;;;;15.23;13.70;;;;;;;;;;4966231;28;20698;-64
2021/04/17 03:40:05;;;;;;;17.77;13.77;;;;;;;;;;4969947;28;20570;-65
2021/04/17 03:42:31;;;;;;;15.30;13.63;;;;;;;;;;4968275;28;20249;-65
2021/04/17 03:44:57;;;;;;;15.27;13.77;;;;;;;;;;4969689;28;20274;-62
2021/04/17 03:47:23;;;;;;;18.37;14.77;;;;;;;;;;4966474;28;20290;-64
2021/04/17 03:49:49;;;;;;;18.13;15.33;;;;;;;;;;4971009;28;20693;-63
2021/04/17 03:52:15;;;;;;;15.73;14.10;;;;;;;;;;4979892;28;20190;-63
2021/04/17 03:54:41;;;;;;;15.90;14.17;;;;;;;;;;4965157;28;20187;-65
2021/04/17 03:57:08;;;;;;;16.10;14.10;;;;;;;;;;4964136;28;20210;-63
2021/04/17 03:59:34;;;;;;;16.27;14.50;;;;;;;;;;4967121;28;20187;-63
2021/04/17 04:02:00;;;;;;;16.27;14.53;;;;;;;;;;4970493;28;20333;-65
2021/04/17 04:04:25;;;;;;;15.37;13.73;;;;;;;;;;4965416;28;20290;-64
2021/04/17 04:06:51;;;;;;;16.40;14.33;;;;;;;;;;4969030;28;20217;-64
2021/04/17 04:09:17;;;;;;;15.73;14.03;;;;;;;;;;4969636;28;20200;-65
2021/04/17 04:11:44;;;;;;;16.57;14.73;;;;;;;;;;4966665;28;20244;-65
2021/04/17 04:14:09;;;;;;;16.37;14.60;;;;;;;;;;4968107;28;20182;-65
2021/04/17 04:16:35;;;;;;;17.33;15.53;;;;;;;;;;4971262;28;20216;-65
2021/04/17 04:19:01;;;;;;;16.80;15.00;;;;;;;;;;4972634;28;20255;-63
2021/04/17 04:21:27;;;;;;;16.37;14.67;;;;;;;;;;4969547;28;20682;-64
2021/04/17 04:23:53;;;;;;;16.67;14.93;;;;;;;;;;4974770;28;20186;-63
2021/04/17 04:26:19;;;;;;;16.83;15.03;;;;;;;;;;4972251;28;20211;-63
2021/04/17 04:28:45;;;;;;;17.63;15.87;;;;;;;;;;4962294;28;20623;-63
2021/04/17 04:31:11;;;;;;;17.60;15.67;;;;;;;;;;4970839;28;20182;-65
2021/04/17 04:33:37;;;;;;;18.83;14.87;;;;;;;;;;4973969;28;20184;-64
2021/04/17 04:36:03;;;;;;;19.47;17.37;;;;;;;;;;4968410;28;20216;-65
2021/04/17 04:38:29;;;;;;;18.07;16.20;;;;;;;;;;4975229;28;20574;-64
2021/04/17 04:40:56;;;;;;;17.00;15.20;;;;;;;;;;4973393;28;20187;-64
2021/04/17 04:43:22;;;;;;;17.33;15.13;;;;;;;;;;4972259;28;20197;-64
2021/04/17 04:45:48;;;;;;;15.93;14.27;;;;;;;;;;4969700;28;20279;-63
2021/04/17 04:48:14;;;;;;;16.73;15.00;;;;;;;;;;4969580;28;20192;-64
2021/04/17 04:50:40;;;;;;;16.97;14.03;;;;;;;;;;4978893;28;20203;-64
2021/04/17 04:53:07;;;;;;;17.53;14.80;;;;;;;;;;4976977;28;20704;-64
2021/04/17 04:55:33;;;;;;;15.83;14.23;;;;;;;;;;4973341;28;20186;-64
2021/04/17 04:57:59;;;;;;;17.43;14.77;;;;;;;;;;4973716;28;20677;-64
2021/04/17 05:00:26;;;;;;;17.03;15.23;;;;;;;;;;4976305;28;20189;-64
2021/04/17 05:02:52;;;;;;;18.33;14.60;;;;;;;;;;4974886;28;20183;-64
2021/04/17 05:05:18;;;;;;;16.60;14.47;;;;;;;;;;4971659;28;20239;-64
2021/04/17 05:07:44;;;;;;;16.67;14.97;;;;;;;;;;4971839;28;20216;-64
2021/04/17 05:10:11;;;;;;;15.87;14.17;;;;;;;;;;4976476;28;20692;-64
2021/04/17 05:12:37;;;;;;;17.20;15.33;;;;;;;;;;4977667;28;20191;-65
2021/04/17 05:15:04;;;;;;;18.83;15.23;;;;;;;;;;4970766;28;20201;-64
2021/04/17 05:17:30;;;;;;;17.30;15.27;;;;;;;;;;4967519;28;20239;-64
2021/04/17 05:19:56;;;;;;;17.10;15.17;;;;;;;;;;4972930;28;20831;-65
2021/04/17 05:22:22;;;;;;;17.43;15.63;;;;;;;;;;4975666;28;20203;-63
2021/04/17 05:24:50;;;;;;;18.47;15.83;;;;;;;;;;4970221;28;20220;-65
2021/04/17 05:27:16;;;;;;;19.20;15.70;;;;;;;;;;4969752;28;20206;-65
2021/04/17 05:29:42;;;;;;;17.50;15.60;;;;;;;;;;4970153;28;20233;-64
2021/04/17 05:32:08;;;;;;;17.13;15.17;;;;;;;;;;4969312;28;20690;-64
2021/04/17 05:34:34;;;;;;;21.23;15.27;;;;;;;;;;4972195;28;20191;-64
2021/04/17 05:37:00;;;;;;;16.67;14.87;;;;;;;;;;4967551;28;20682;-65
2021/04/17 05:39:27;;;;;;;22.30;17.40;;;;;;;;;;4973724;28;20747;-65
2021/04/17 05:41:53;;;;;;;17.63;15.73;;;;;;;;;;4969679;28;20204;-65
2021/04/17 05:44:19;;;;;;;17.70;15.80;;;;;;;;;;4962343;28;20224;-65
2021/04/17 05:46:45;;;;;;;18.03;16.13;;;;;;;;;;4968893;28;20213;-65
2021/04/17 05:49:12;;;;;;;17.60;15.80;;;;;;;;;;4975300;28;20205;-64
2021/04/17 05:51:38;;;;;;;16.97;15.07;;;;;;;;;;4967072;28;20267;-65
2021/04/17 05:54:05;;;;;;;17.07;15.37;;;;;;;;;;4969425;28;20299;-65
2021/04/17 05:56:31;;;;;;;15.97;14.17;;;;;;;;;;4964991;28;20626;-64
2021/04/17 05:58:57;;;;;;;16.33;14.63;;;;;;;;;;4967667;28;20642;-64
2021/04/17 06:01:23;;;;;;;19.27;15.97;;;;;;;;;;4971634;28;20199;-65
2021/04/17 06:03:50;;;;;;;21.03;16.07;;;;;;;;;;4970472;28;20543;-64
2021/04/17 06:06:16;;;;;;;22.03;15.40;;;;;;;;;;4966553;28;20227;-64
2021/04/17 06:08:42;;;;;;;16.23;14.07;;;;;;;;;;4962755;28;20204;-65
2021/04/17 06:11:08;;;;;;;16.17;14.57;;;;;;;;;;4969436;28;20244;-65
2021/04/17 06:13:34;;;;;;;19.00;15.90;;;;;;;;;;4966568;28;20725;-64
2021/04/17 06:16:05;;;;;;;17.27;15.47;;;;;;;;;;4964196;28;20206;-65
2021/04/17 06:18:31;;;;;;;17.40;15.40;;;;;;;;;;4966799;28;20206;-64
2021/04/17 06:20:57;;;;;;;17.77;15.97;;;;;;;;;;4971832;28;20203;-64
2021/04/17 06:23:23;;;;;;;18.60;15.33;;;;;;;;;;4965324;28;20188;-65
2021/04/17 06:25:49;;;;;;;17.30;15.57;;;;;;;;;;4967862;28;20191;-65
2021/04/17 06:28:16;;;;;;;18.17;16.17;;;;;;;;;;4969800;28;20237;-65
2021/04/17 06:30:42;;;;;;;17.10;15.40;;;;;;;;;;4963782;28;20695;-64
2021/04/17 06:33:10;;;;;;;17.27;15.47;;;;;;;;;;4972860;28;20195;-63
2021/04/17 06:35:37;;;;;;;17.23;15.43;;;;;;;;;;4969716;28;20189;-65
2021/04/17 06:38:03;;;;;;;16.90;15.20;;;;;;;;;;4962647;28;20214;-64
2021/04/17 06:40:30;;;;;;;16.67;15.00;;;;;;;;;;4970195;28;20197;-64
2021/04/17 06:42:58;;;;;;;16.50;14.93;;;;;;;;;;4968796;28;20645;-64
2021/04/17 06:45:24;;;;;;;16.80;14.83;;;;;;;;;;4968606;28;20284;-64
2021/04/17 06:47:51;;;;;;;15.43;13.90;;;;;;;;;;4969163;28;20218;-64
2021/04/17 06:50:18;;;;;;;15.70;14.10;;;;;;;;;;4974558;28;20199;-63
2021/04/17 06:52:45;;;;;;;15.67;14.13;;;;;;;;;;4968023;28;20191;-63
2021/04/17 06:55:11;;;;;;;15.27;13.87;;;;;;;;;;4962985;28;20572;-63
2021/04/17 06:57:37;;;;;;;14.90;13.40;;;;;;;;;;4966166;28;20276;-65
2021/04/17 07:00:07;;;;;;;14.77;13.33;;;;;;;;;;4967338;28;20534;-64
2021/04/17 07:02:33;;;;;;;15.17;13.57;;;;;;;;;;4967012;28;20204;-65
2021/04/17 07:04:59;;;;;;;14.17;12.77;;;;;;;;;;4967233;28;20189;-65
2021/04/17 07:07:25;;;;;;;14.80;13.30;;;;;;;;;;4967452;28;20586;-65
2021/04/17 07:09:52;;;;;;;15.67;14.07;;;;;;;;;;4968053;28;20245;-65
2021/04/17 07:12:18;;;;;;;16.20;13.83;;;;;;;;;;4969013;28;20188;-65
2021/04/17 07:14:46;;;;;;;16.33;14.73;;;;;;;;;;4972542;28;20179;-66
2021/04/17 07:17:12;;;;;;;15.50;13.60;;;;;;;;;;4964906;28;20702;-65
2021/04/17 07:19:45;;;;;;;14.73;13.37;;;;;;;;;;4967869;28;20205;-65
2021/04/17 07:22:27;;;;;;;15.40;13.90;;;;;;;;;;4969290;28;20194;-66
2021/04/17 07:24:54;;;;;;;16.17;14.60;;;;;;;;;;4967318;28;20200;-66
2021/04/17 07:27:30;;;;;;;16.60;15.00;;;;;;;;;;4965428;28;20342;-65
2021/04/17 07:29:57;;;;;;;15.97;14.03;;;;;;;;;;4970477;28;20640;-65
2021/04/17 07:32:23;;;;;;;16.30;14.63;;;;;;;;;;4966506;28;20191;-65
2021/04/17 07:35:07;;;;;;;18.03;15.17;;;;;;;;;;4967802;28;20188;-65
2021/04/17 07:37:34;;;;;;;16.38;14.77;;;;;;;;;;4968548;28;20210;-65
2021/04/17 07:40:29;;;;;;;14.83;13.43;;;;;;;;;;4972617;28;20210;-66
2021/04/17 07:42:56;;;;;;;15.77;14.27;;;;;;;;;;4961073;28;20210;-66
2021/04/17 07:45:28;;;;;;;14.85;13.45;;;;;;;;;;4971039;28;20700;-66
2021/04/17 07:48:15;;;;;;;14.90;13.40;;;;;;;;;;4969146;28;20504;-67
2021/04/17 07:50:41;;;;;;;14.70;13.20;;;;;;;;;;4976076;28;20728;-68
2021/04/17 07:53:26;;;;;;;15.32;13.85;;;;;;;;;;4969884;28;20269;-66
2021/04/17 07:55:52;;;;;;;15.07;13.68;;;;;;;;;;4966932;28;20242;-65
2021/04/17 07:58:18;;;;;;;14.27;12.98;;;;;;;;;;4969729;28;20213;-66
2021/04/17 08:00:44;;;;;;;13.90;12.63;;;;;;;;;;4969461;28;20220;-65
2021/04/17 08:03:11;;;;;;;15.07;13.57;;;;;;;;;;4965823;28;20198;-65
2021/04/17 08:05:37;;;;;;;15.40;13.77;;;;;;;;;;4961751;28;20183;-68
2021/04/17 08:08:03;;;;;;;15.35;13.43;;;;;;;;;;4965072;28;20466;-64
2021/04/17 08:10:30;;;;;;;14.95;13.45;;;;;;;;;;4971129;28;20252;-68
2021/04/17 08:12:59;;;;;;;15.50;13.85;;;;;;;;;;4969612;28;20190;-67
2021/04/17 08:15:25;;;;;;;13.30;11.95;;;;;;;;;;4971241;28;20224;-68
2021/04/17 08:17:53;;;;;;;13.82;12.38;;;;;;;;;;4970733;28;20212;-69
2021/04/17 08:20:20;;;;;;;12.63;11.43;;;;;;;;;;4973769;28;20277;-67
2021/04/17 08:22:49;;;;;;;14.23;12.55;;;;;;;;;;4970616;28;20241;-67
2021/04/17 08:25:18;;;;;;;13.68;12.48;;;;;;;;;;4977598;28;20188;-66
2021/04/17 08:27:44;;;;;;;13.55;12.15;;;;;;;;;;4970367;28;20289;-67
2021/04/17 08:30:19;;;;;;;13.73;12.43;;;;;;;;;;4966593;28;20602;-67
2021/04/17 08:32:46;;;;;;;13.73;12.40;;;;;;;;;;4966458;28;20217;-68
2021/04/17 08:35:15;;;;;;;11.00;10.00;;;;;;;;;;4976060;28;20210;-68
2021/04/17 08:37:54;;;;;;;10.50;9.60;;;;;;;;;;4968968;28;20195;-67
2021/04/17 08:40:38;;;;;;;12.23;11.13;;;;;;;;;;4970853;28;20211;-68
2021/04/17 08:43:05;;;;;;;13.52;12.13;;;;;;;;;;4967032;28;20208;-67
2021/04/17 08:45:32;;;;;;;11.45;10.35;;;;;;;;;;4968753;28;20274;-68
2021/04/17 08:48:00;;;;;;;10.32;9.43;;;;;;;;;;4965639;28;20561;-68
2021/04/17 08:50:26;;;;;;;11.48;10.38;;;;;;;;;;4968322;28;20214;-68
2021/04/17 08:52:56;;;;;;;13.80;11.77;;;;;;;;;;4966367;28;20175;-67
2021/04/17 08:55:22;;;;;;;13.45;12.15;;;;;;;;;;4966979;28;20569;-67
2021/04/17 08:58:07;;;;;;;12.07;10.73;;;;;;;;;;4962824;28;20737;-68
2021/04/17 09:00:33;;;;;;;12.20;11.10;;;;;;;;;;4970952;28;20696;-67
2021/04/17 09:02:59;;;;;;;11.77;10.45;;;;;;;;;;4972292;28;20203;-68
2021/04/17 09:05:41;;;;;;;10.30;9.30;;;;;;;;;;4961697;28;20226;-68
2021/04/17 09:08:13;;;;;;;11.25;8.75;;;;;;;;;;4964340;28;20217;-67
2021/04/17 09:10:39;;;;;;;9.00;8.13;;;;;;;;;;4975669;28;20242;-65
2021/04/17 09:13:13;;;;;;;8.90;8.00;;;;;;;;;;4974905;28;20186;-66
2021/04/17 09:15:51;;;;;;;9.73;8.73;;;;;;;;;;4967189;28;20179;-66
2021/04/17 09:18:36;;;;;;;9.52;8.63;;;;;;;;;;4963318;28;20634;-67
2021/04/17 09:21:05;;;;;;;8.63;7.60;;;;;;;;;;4961069;28;20195;-63
2021/04/17 09:23:41;;;;;;;8.40;7.40;;;;;;;;;;4966885;28;20657;-63
2021/04/17 09:26:08;;;;;;;9.02;8.23;;;;;;;;;;4969408;28;20186;-65
2021/04/17 09:28:37;;;;;;;9.80;8.63;;;;;;;;;;4964499;28;20206;-63
2021/04/17 09:31:04;;;;;;;11.65;9.75;;;;;;;;;;4971594;28;20196;-63
2021/04/17 09:33:31;;;;;;;9.80;8.90;;;;;;;;;;4964378;28;20179;-64
2021/04/17 09:35:57;;;;;;;11.10;9.38;;;;;;;;;;4969264;28;20174;-61
2021/04/17 09:38:23;;;;;;;9.02;8.07;;;;;;;;;;4968157;28;20577;-66
2021/04/17 09:40:53;;;;;;;12.27;9.00;;;;;;;;;;4970116;28;20193;-65
2021/04/17 09:43:29;;;;;;;8.98;8.07;;;;;;;;;;4969835;28;20183;-64
2021/04/17 09:45:57;;;;;;;9.60;8.73;;;;;;;;;;4964171;28;20190;-62
2021/04/17 09:48:24;;;;;;;9.57;8.60;;;;;;;;;;4970319;28;20191;-64
2021/04/17 09:50:51;;;;;;;14.52;11.00;;;;;;;;;;4973184;28;20189;-65
2021/04/17 09:53:21;;;;;;;11.15;9.68;;;;;;;;;;4972225;28;20182;-64
2021/04/17 09:55:49;;;;;;;12.32;9.85;;;;;;;;;;4970033;28;20190;-64
2021/04/17 09:58:27;;;;;;;11.55;10.35;;;;;;;;;;4967472;28;20270;-63
2021/04/17 10:00:54;;;;;;;9.73;8.80;;;;;;;;;;4970926;28;20221;-63
2021/04/17 10:03:27;;;;;;;9.10;8.23;;;;;;;;;;4969148;28;20257;-64
2021/04/17 10:05:53;;;;;;;10.07;9.07;;;;;;;;;;4962172;28;20265;-62
2021/04/17 10:08:26;;;;;;;9.93;8.85;;;;;;;;;;4962887;28;20248;-66
2021/04/17 10:10:51;;;;;;;10.77;8.57;;;;;;;;;;4966988;28;20206;-64
2021/04/17 10:13:35;;;;;;;9.88;8.88;;;;;;;;;;4965743;28;20951;-64
2021/04/17 10:16:01;;;;;;;7.20;6.53;;;;;;;;;;4964335;28;20190;-63
2021/04/17 10:18:27;;;;;;;7.85;7.05;;;;;;;;;;4968019;28;20560;-63
2021/04/17 10:20:53;;;;;;;9.77;7.07;;;;;;;;;;4966637;28;20187;-63
2021/04/17 10:23:19;;;;;;;8.82;7.93;;;;;;;;;;4967008;28;20187;-64
2021/04/17 10:25:46;;;;;;;9.35;6.50;;;;;;;;;;4969284;28;20738;-65
2021/04/17 10:28:12;;;;;;;8.63;6.78;;;;;;;;;;4969537;28;20202;-66
2021/04/17 10:30:38;;;;;;;7.55;6.70;;;;;;;;;;4972458;28;20561;-64
2021/04/17 10:33:12;;;;;;;8.00;7.22;;;;;;;;;;4963005;28;20179;-64
2021/04/17 10:35:37;;;;;;;8.43;7.60;;;;;;;;;;4968303;28;20180;-64
2021/04/17 10:38:03;;;;;;;7.47;6.78;;;;;;;;;;4970084;28;20206;-64
2021/04/17 10:40:30;;;;;;;9.27;6.63;;;;;;;;;;4967936;28;20658;-64
2021/04/17 10:43:03;;;;;;;6.93;6.22;;;;;;;;;;4968581;28;20338;-64
2021/04/17 10:45:29;;;;;;;8.60;6.40;;;;;;;;;;4979595;28;20197;-64
2021/04/17 10:47:59;;;;;;;8.38;7.10;;;;;;;;;;4970101;28;20842;-66
2021/04/17 10:50:26;;;;;;;7.55;6.78;;;;;;;;;;4979166;28;20227;-64
2021/04/17 10:53:03;;;;;;;7.53;6.82;;;;;;;;;;4979982;28;20176;-66
2021/04/17 10:55:30;;;;;;;8.32;5.50;;;;;;;;;;4968383;28;20206;-65
2021/04/17 10:57:57;;;;;;;7.82;5.90;;;;;;;;;;4978542;28;20252;-66
2021/04/17 11:00:33;;;;;;;7.20;6.40;;;;;;;;;;4976859;28;20217;-66
2021/04/17 11:02:59;;;;;;;5.85;5.35;;;;;;;;;;4973950;28;20627;-64
2021/04/17 11:05:30;;;;;;;6.78;6.18;;;;;;;;;;4973591;28;20217;-66
2021/04/17 11:08:03;;;;;;;7.03;5.72;;;;;;;;;;4966258;28;20207;-65
2021/04/17 11:10:30;;;;;;;6.07;5.57;;;;;;;;;;4974249;28;20314;-64
2021/04/17 11:12:56;;;;;;;8.35;7.55;;;;;;;;;;4979963;28;20185;-64
2021/04/17 11:15:24;;;;;;;6.63;5.70;;;;;;;;;;4972525;28;20174;-65
2021/04/17 11:18:08;;;;;;;6.15;5.30;;;;;;;;;;4970865;28;20209;-65
2021/04/17 11:20:49;;;;;;;6.60;5.93;;;;;;;;;;4976216;28;20245;-64
2021/04/17 11:23:32;;;;;;;6.75;6.05;;;;;;;;;;4974431;28;20198;-65
2021/04/17 11:25:58;;;;;;;7.07;6.47;;;;;;;;;;4969014;28;20717;-63
2021/04/17 11:28:24;;;;;;;8.25;7.55;;;;;;;;;;4971129;28;20213;-64
2021/04/17 11:30:51;;;;;;;7.03;6.32;;;;;;;;;;4971100;28;20206;-65
2021/04/17 11:33:17;;;;;;;7.10;6.28;;;;;;;;;;4964798;28;20174;-65
2021/04/17 11:35:43;;;;;;;6.97;6.35;;;;;;;;;;4965376;28;20185;-65
2021/04/17 11:38:09;;;;;;;8.10;6.90;;;;;;;;;;4959479;28;20294;-63
2021/04/17 11:40:35;;;;;;;8.00;5.82;;;;;;;;;;4964685;28;20631;-63
2021/04/17 11:43:01;;;;;;;10.55;8.50;;;;;;;;;;4962286;28;20209;-64
2021/04/17 11:45:27;;;;;;;7.28;6.20;;;;;;;;;;4962717;28;20641;-64
2021/04/17 11:47:53;;;;;;;6.18;5.03;;;;;;;;;;4966340;28;20260;-63
2021/04/17 11:50:19;;;;;;;6.53;5.68;;;;;;;;;;4962395;28;20195;-65
2021/04/17 11:52:45;;;;;;;7.15;5.63;;;;;;;;;;4965433;28;20193;-64
2021/04/17 11:55:11;;;;;;;5.65;5.15;;;;;;;;;;4963965;28;20658;-65
2021/04/17 11:57:38;;;;;;;6.10;5.50;;;;;;;;;;4964527;28;20198;-65
2021/04/17 12:00:05;;;;;;;5.78;5.10;;;;;;;;;;4966457;28;20199;-65
2021/04/17 12:02:31;;;;;;;6.97;5.85;;;;;;;;;;4963678;28;20197;-66
2021/04/17 12:04:57;;;;;;;6.60;5.93;;;;;;;;;;4953475;28;20296;-64
2021/04/17 12:07:23;;;;;;;5.78;5.07;;;;;;;;;;4956075;28;20215;-65
2021/04/17 12:09:51;;;;;;;6.32;5.72;;;;;;;;;;4958700;28;20756;-63
2021/04/17 12:12:17;;;;;;;6.38;5.40;;;;;;;;;;4971403;28;20179;-65
2021/04/17 12:14:43;;;;;;;7.93;5.10;;;;;;;;;;4963031;28;20726;-66
2021/04/17 12:17:10;;;;;;;6.40;5.38;;;;;;;;;;4965588;28;20213;-65
2021/04/17 12:19:36;;;;;;;7.10;5.70;;;;;;;;;;4970813;28;20195;-63
2021/04/17 12:22:02;;;;;;;6.18;5.57;;;;;;;;;;4964885;28;20278;-63
2021/04/17 12:24:28;;;;;;;6.00;5.47;;;;;;;;;;4964232;28;20192;-62
2021/04/17 12:26:54;;;;;;;6.85;6.25;;;;;;;;;;4964307;28;20224;-62
2021/04/17 12:29:20;;;;;;;6.45;5.85;;;;;;;;;;4967818;28;20581;-63
2021/04/17 12:31:46;;;;;;;7.35;5.75;;;;;;;;;;4961072;28;20687;-63
2021/04/17 12:34:12;;;;;;;7.32;5.60;;;;;;;;;;4967215;28;20261;-63
2021/04/17 12:36:38;;;;;;;6.15;5.55;;;;;;;;;;4968365;28;20217;-67
2021/04/17 12:39:04;;;;;;;6.03;5.53;;;;;;;;;;4971487;28;20336;-64
2021/04/17 12:41:32;;;;;;;7.43;6.72;;;;;;;;;;4968393;28;20194;-64
2021/04/17 12:43:58;;;;;;;15.05;7.78;;;;;;;;;;4967702;28;20237;-64
2021/04/17 12:46:24;;;;;;;8.05;7.25;;;;;;;;;;4974981;28;20686;-66
2021/04/17 12:48:50;;;;;;;7.85;7.05;;;;;;;;;;4968730;28;20202;-66
2021/04/17 12:51:16;;;;;;;10.45;5.85;;;;;;;;;;4973883;28;20801;-65
2021/04/17 12:53:42;;;;;;;5.85;5.25;;;;;;;;;;4971868;28;20234;-64
2021/04/17 12:56:08;;;;;;;6.50;5.90;;;;;;;;;;4971158;28;20210;-64
2021/04/17 12:58:38;;;;;;;7.97;6.80;;;;;;;;;;4971472;28;20183;-64
2021/04/17 13:01:04;;;;;;;10.30;5.90;;;;;;;;;;4968865;28;20190;-64
2021/04/17 13:03:30;;;;;;;8.02;5.88;;;;;;;;;;4966981;28;20179;-63
2021/04/17 13:05:56;;;;;;;7.60;6.65;;;;;;;;;;4967761;28;20593;-63
2021/04/17 13:08:24;;;;;;;8.27;6.07;;;;;;;;;;4964532;28;20249;-66
2021/04/17 13:10:50;;;;;;;6.90;6.20;;;;;;;;;;4966674;28;20283;-62
2021/04/17 13:13:16;;;;;;;6.85;5.90;;;;;;;;;;4973764;28;20665;-65
2021/04/17 13:15:46;;;;;;;7.13;5.80;;;;;;;;;;4964628;28;20217;-64
2021/04/17 13:18:13;;;;;;;6.38;5.75;;;;;;;;;;4975318;28;20214;-64
2021/04/17 13:20:39;;;;;;;9.35;5.95;;;;;;;;;;4973662;28;20750;-64
2021/04/17 13:23:05;;;;;;;7.35;5.70;;;;;;;;;;4967967;28;20222;-64
2021/04/17 13:25:31;;;;;;;7.97;5.28;;;;;;;;;;4968533;28;20193;-67
2021/04/17 13:27:57;;;;;;;5.43;4.72;;;;;;;;;;4965740;28;20210;-63
2021/04/17 13:30:23;;;;;;;5.22;4.72;;;;;;;;;;4961954;28;20603;-64
2021/04/17 13:32:51;;;;;;;5.32;4.80;;;;;;;;;;4980176;28;20772;-64
2021/04/17 13:35:17;;;;;;;7.57;5.43;;;;;;;;;;4971599;28;20182;-64
2021/04/17 13:37:43;;;;;;;10.43;6.82;;;;;;;;;;4978228;28;20206;-67
2021/04/17 13:40:10;;;;;;;7.05;5.47;;;;;;;;;;4976485;28;20200;-62
2021/04/17 13:42:36;;;;;;;5.38;4.93;;;;;;;;;;4978141;28;20178;-64
2021/04/17 13:45:05;;;;;;;6.60;6.00;;;;;;;;;;4977016;28;20622;-64
2021/04/17 13:47:31;;;;;;;6.40;5.78;;;;;;;;;;4969416;28;20334;-61
2021/04/17 13:49:57;;;;;;;5.53;4.97;;;;;;;;;;4978816;28;20258;-62
2021/04/17 13:52:23;;;;;;;5.57;5.07;;;;;;;;;;4971313;28;20182;-62
2021/04/17 13:54:49;;;;;;;5.15;4.55;;;;;;;;;;4973439;28;20186;-63
2021/04/17 13:57:15;;;;;;;7.47;4.38;;;;;;;;;;4968218;28;20194;-62
2021/04/17 13:59:41;;;;;;;4.47;4.07;;;;;;;;;;4964031;28;20190;-63
2021/04/17 14:02:07;;;;;;;4.47;4.10;;;;;;;;;;4980281;28;20240;-62
2021/04/17 14:04:34;;;;;;;8.98;4.97;;;;;;;;;;4967240;28;20269;-64
2021/04/17 14:07:00;;;;;;;6.88;4.63;;;;;;;;;;4966709;28;20586;-64
2021/04/17 14:09:26;;;;;;;5.57;3.95;;;;;;;;;;4967484;28;20567;-63
2021/04/17 14:11:52;;;;;;;4.60;4.07;;;;;;;;;;4960221;28;20170;-61
2021/04/17 14:14:18;;;;;;;4.68;3.90;;;;;;;;;;4968672;28;20265;-62
2021/04/17 14:16:44;;;;;;;4.95;3.80;;;;;;;;;;4966448;28;20249;-62
2021/04/17 14:19:10;;;;;;;6.93;4.30;;;;;;;;;;4971243;28;20529;-63
2021/04/17 14:21:36;;;;;;;5.32;4.18;;;;;;;;;;4959891;28;20201;-62
2021/04/17 14:24:03;;;;;;;3.95;3.65;;;;;;;;;;4963373;28;20187;-62
2021/04/17 14:26:29;;;;;;;5.55;3.97;;;;;;;;;;4963869;28;20297;-62
2021/04/17 14:28:55;;;;;;;6.50;3.80;;;;;;;;;;4969421;28;20701;-63